Time;durP1;ratioP1;P1;durP2;ratioP2;P2;SDS_P1;SDS_P2;PMS_P1;PMS_P2;Temp;Humidity;BMP_temperature;BMP_pressure;BME280_temperature;BME280_humidity;BME280_pressure;Samples;Min_cycle;Max_cycle;Signal;HPM_P1;HPM_P2
2023/06/19 00:02:21;;;;;;;9.15;8.25;;;21.90;65.30;;;;;;5098380;28;20050;-79
2023/06/19 00:04:46;;;;;;;10.55;9.43;;;21.90;65.60;;;;;;5081913;28;20043;-78
2023/06/19 00:07:12;;;;;;;10.10;9.02;;;21.90;66.60;;;;;;5098677;28;20043;-79
2023/06/19 00:09:38;;;;;;;10.48;9.35;;;21.90;66.80;;;;;;5098622;28;20088;-79
2023/06/19 00:12:04;;;;;;;12.13;9.68;;;21.90;67.80;;;;;;5065054;28;20044;-79
2023/06/19 00:14:30;;;;;;;9.82;8.93;;;21.90;67.40;;;;;;5115731;28;20122;-78
2023/06/19 00:16:56;;;;;;;10.05;9.07;;;21.80;67.80;;;;;;5098574;28;20124;-78
2023/06/19 00:19:22;;;;;;;10.35;9.30;;;21.80;67.90;;;;;;5098464;28;20036;-78
2023/06/19 00:21:48;;;;;;;9.73;8.80;;;21.80;68.00;;;;;;5081854;28;20035;-80
2023/06/19 00:24:14;;;;;;;10.38;9.48;;;21.80;68.00;;;;;;5115389;28;20060;-78
2023/06/19 00:26:40;;;;;;;9.95;9.10;;;21.80;68.30;;;;;;5098785;28;20044;-78
2023/06/19 00:29:07;;;;;;;10.57;9.43;;;21.80;68.50;;;;;;5098959;28;20064;-78
2023/06/19 00:31:32;;;;;;;10.82;9.82;;;21.80;68.70;;;;;;5099428;28;20410;-78
2023/06/19 00:33:58;;;;;;;9.43;8.55;;;21.70;68.70;;;;;;5082281;28;20044;-78
2023/06/19 00:36:25;;;;;;;9.75;8.82;;;21.70;68.50;;;;;;5116223;28;20531;-78
2023/06/19 00:38:52;;;;;;;9.65;8.75;;;21.70;68.70;;;;;;5099172;28;20039;-78
2023/06/19 00:41:18;;;;;;;10.45;8.93;;;21.70;68.80;;;;;;5115821;28;20439;-77
2023/06/19 00:43:44;;;;;;;11.05;8.88;;;21.70;68.60;;;;;;5098611;28;20046;-78
2023/06/19 00:46:10;;;;;;;9.43;8.45;;;21.70;69.00;;;;;;5115383;28;20032;-78
2023/06/19 00:48:36;;;;;;;9.73;8.73;;;21.70;69.20;;;;;;5115203;28;20035;-78
2023/06/19 00:51:03;;;;;;;10.85;8.93;;;21.70;69.40;;;;;;5097641;28;20380;-79
2023/06/19 00:53:30;;;;;;;9.80;8.80;;;21.70;69.20;;;;;;5097569;28;20047;-78
2023/06/19 00:55:57;;;;;;;9.80;8.80;;;21.70;68.80;;;;;;5114870;28;20050;-78
2023/06/19 00:58:23;;;;;;;9.32;8.43;;;21.70;68.70;;;;;;5115171;28;20043;-78
2023/06/19 01:00:49;;;;;;;9.13;8.30;;;21.70;68.70;;;;;;5116011;28;20035;-79
2023/06/19 01:03:15;;;;;;;9.57;8.57;;;21.70;68.70;;;;;;5115741;28;20078;-78
2023/06/19 01:05:42;;;;;;;9.85;8.85;;;21.70;69.20;;;;;;5115692;28;20044;-78
2023/06/19 01:08:43;;;;;;;9.20;8.30;;;21.70;69.40;;;;;;5115976;28;20039;-79
2023/06/19 01:11:11;;;;;;;9.65;8.38;;;21.70;69.10;;;;;;5107829;28;20048;-77
2023/06/19 01:13:54;;;;;;;10.13;8.82;;;21.70;68.90;;;;;;5115526;28;20519;-78
2023/06/19 01:16:21;;;;;;;10.13;9.10;;;21.70;68.80;;;;;;5115570;28;20090;-78
2023/06/19 01:18:47;;;;;;;9.73;8.77;;;21.70;68.60;;;;;;5098599;28;20069;-78
2023/06/19 01:21:15;;;;;;;8.93;8.15;;;21.70;68.60;;;;;;5114762;28;20127;-78
2023/06/19 01:23:41;;;;;;;10.57;8.38;;;21.70;68.60;;;;;;5081277;28;20055;-77
2023/06/19 01:26:07;;;;;;;9.38;8.43;;;21.60;69.30;;;;;;5114902;28;20052;-77
2023/06/19 01:28:37;;;;;;;11.32;9.05;;;21.70;68.80;;;;;;5097887;28;20126;-78
2023/06/19 01:31:27;;;;;;;9.20;8.38;;;21.60;68.80;;;;;;5098368;28;20043;-78
2023/06/19 01:33:56;;;;;;;8.75;7.95;;;21.50;69.00;;;;;;5108569;28;20047;-79
2023/06/19 01:36:23;;;;;;;9.73;8.23;;;21.50;68.70;;;;;;5114215;28;20043;-78
2023/06/19 01:38:50;;;;;;;9.18;8.15;;;21.50;68.50;;;;;;5114663;28;20069;-78
2023/06/19 01:41:17;;;;;;;9.80;8.90;;;21.50;68.50;;;;;;5097786;28;20458;-79
2023/06/19 01:43:44;;;;;;;9.38;8.48;;;21.60;68.10;;;;;;5115711;28;20049;-78
2023/06/19 01:46:10;;;;;;;11.25;8.38;;;21.50;67.90;;;;;;5115539;28;20506;-77
2023/06/19 01:48:36;;;;;;;10.38;8.35;;;21.60;67.70;;;;;;5098160;28;20075;-78
2023/06/19 01:51:03;;;;;;;9.90;8.90;;;21.60;67.50;;;;;;5098085;28;20043;-78
2023/06/19 01:53:31;;;;;;;9.00;8.10;;;21.60;67.10;;;;;;5115268;28;20051;-79
2023/06/19 01:55:57;;;;;;;9.30;8.40;;;21.60;66.70;;;;;;5097901;28;20092;-78
2023/06/19 01:58:23;;;;;;;9.35;8.25;;;21.60;66.20;;;;;;5115274;28;20036;-77
2023/06/19 02:00:48;;;;;;;9.32;8.38;;;21.70;65.70;;;;;;5099192;28;20524;-76
2023/06/19 02:03:14;;;;;;;9.07;8.15;;;21.70;65.70;;;;;;5098680;28;20085;-78
2023/06/19 02:05:40;;;;;;;9.70;7.82;;;21.70;65.70;;;;;;5098932;28;20035;-78
2023/06/19 02:08:06;;;;;;;8.77;7.90;;;21.70;65.60;;;;;;5099215;28;20036;-77
2023/06/19 02:10:32;;;;;;;9.70;7.85;;;21.70;65.60;;;;;;5099266;28;20046;-78
2023/06/19 02:12:58;;;;;;;9.88;8.88;;;21.70;65.60;;;;;;5081970;28;20046;-77
2023/06/19 02:15:23;;;;;;;10.50;8.90;;;21.70;65.40;;;;;;5114983;28;20035;-78
2023/06/19 02:17:54;;;;;;;12.15;9.40;;;21.70;65.20;;;;;;5098977;28;20054;-78
2023/06/19 02:20:26;;;;;;;12.20;9.07;;;21.70;65.20;;;;;;5114474;28;20039;-77
2023/06/19 02:22:52;;;;;;;10.20;9.20;;;21.70;65.10;;;;;;5097623;28;20040;-78
2023/06/19 02:25:18;;;;;;;10.55;9.10;;;21.70;65.10;;;;;;5080213;28;20051;-77
2023/06/19 02:27:44;;;;;;;10.05;9.07;;;21.60;65.10;;;;;;5114340;28;20054;-78
2023/06/19 02:30:10;;;;;;;11.18;9.50;;;21.60;65.10;;;;;;5114548;28;20044;-78
2023/06/19 02:32:36;;;;;;;10.05;9.10;;;21.70;64.90;;;;;;5114179;28;20044;-77
2023/06/19 02:35:03;;;;;;;10.07;9.13;;;21.70;64.60;;;;;;5097340;28;20084;-78
2023/06/19 02:37:29;;;;;;;9.70;8.73;;;21.60;64.10;;;;;;5097119;28;20368;-76
2023/06/19 02:39:55;;;;;;;9.80;8.90;;;21.60;63.90;;;;;;5096696;28;20046;-77
2023/06/19 02:42:21;;;;;;;9.70;8.70;;;21.60;64.00;;;;;;5079769;28;20032;-78
2023/06/19 02:44:46;;;;;;;10.82;9.45;;;21.50;64.40;;;;;;5096095;28;20050;-76
2023/06/19 02:47:12;;;;;;;11.00;9.90;;;21.50;64.60;;;;;;5096320;28;20036;-78
2023/06/19 02:49:38;;;;;;;10.40;9.40;;;21.40;65.20;;;;;;5079889;28;20050;-77
2023/06/19 02:52:04;;;;;;;12.32;9.93;;;21.40;66.00;;;;;;5113233;28;20134;-77
2023/06/19 02:54:30;;;;;;;12.20;9.82;;;21.30;67.20;;;;;;5112960;28;20374;-78
2023/06/19 02:56:56;;;;;;;13.35;10.30;;;21.20;67.90;;;;;;5113493;28;20051;-77
2023/06/19 02:59:22;;;;;;;11.63;10.43;;;21.10;68.70;;;;;;5113185;28;20035;-77
2023/06/19 03:01:47;;;;;;;11.73;10.52;;;21.00;69.50;;;;;;5113510;28;20500;-76
2023/06/19 03:04:13;;;;;;;11.15;9.98;;;20.90;69.90;;;;;;5113963;28;20101;-77
2023/06/19 03:06:39;;;;;;;12.02;10.80;;;20.90;70.00;;;;;;5097003;28;20050;-76
2023/06/19 03:09:12;;;;;;;12.98;10.82;;;20.90;70.00;;;;;;5098925;28;20440;-77
2023/06/19 03:11:41;;;;;;;10.85;9.90;;;20.90;70.30;;;;;;5099688;28;20355;-77
2023/06/19 03:14:07;;;;;;;10.18;9.27;;;20.90;69.80;;;;;;5099928;28;20050;-77
2023/06/19 03:16:34;;;;;;;13.02;9.98;;;20.90;70.20;;;;;;5100139;28;20067;-77
2023/06/19 03:19:00;;;;;;;10.52;9.52;;;20.90;70.00;;;;;;5116472;28;20433;-79
2023/06/19 03:21:26;;;;;;;11.02;9.77;;;20.80;70.30;;;;;;5099686;28;20459;-76
2023/06/19 03:23:52;;;;;;;11.57;10.40;;;20.80;70.30;;;;;;5099967;28;20032;-77
2023/06/19 03:26:19;;;;;;;10.98;9.73;;;20.80;70.00;;;;;;5117351;28;20087;-78
2023/06/19 03:28:48;;;;;;;10.98;9.88;;;20.80;70.50;;;;;;5100993;28;20088;-76
2023/06/19 03:31:14;;;;;;;11.60;10.48;;;20.80;70.50;;;;;;5100900;28;20040;-78
2023/06/19 03:33:40;;;;;;;10.70;9.48;;;20.70;71.20;;;;;;5118105;28;20389;-76
2023/06/19 03:36:06;;;;;;;10.65;8.10;;;20.70;71.90;;;;;;5100377;28;20043;-76
2023/06/19 03:38:31;;;;;;;7.93;7.15;;;20.70;72.30;;;;;;5116850;28;20040;-78
2023/06/19 03:40:57;;;;;;;6.78;6.18;;;20.80;72.40;;;;;;5099637;28;20038;-77
2023/06/19 03:43:23;;;;;;;7.03;6.03;;;20.70;73.60;;;;;;5117002;28;20036;-78
2023/06/19 03:45:49;;;;;;;7.05;4.68;;;20.70;73.80;;;;;;5117088;28;20046;-77
2023/06/19 03:48:16;;;;;;;5.45;4.60;;;20.70;73.80;;;;;;5116404;28;20043;-77
2023/06/19 03:50:42;;;;;;;7.20;4.28;;;20.70;76.00;;;;;;5116947;28;20079;-78
2023/06/19 03:53:07;;;;;;;5.90;3.60;;;20.60;77.10;;;;;;5099673;28;20047;-78
2023/06/19 03:55:33;;;;;;;5.72;3.20;;;20.50;76.70;;;;;;5116439;28;20044;-79
2023/06/19 03:57:59;;;;;;;4.72;3.67;;;20.50;77.80;;;;;;5099377;28;20045;-76
2023/06/19 04:00:24;;;;;;;4.90;3.25;;;20.40;79.20;;;;;;5116446;28;20035;-76
2023/06/19 04:02:50;;;;;;;9.00;4.00;;;20.40;78.10;;;;;;5099649;28;20036;-76
2023/06/19 04:05:16;;;;;;;4.30;3.40;;;20.40;79.40;;;;;;5082341;28;20043;-76
2023/06/19 04:07:41;;;;;;;6.72;3.85;;;20.30;78.30;;;;;;5116181;28;20506;-76
2023/06/19 04:10:07;;;;;;;6.97;3.78;;;20.30;80.30;;;;;;5082394;28;20047;-79
2023/06/19 04:12:33;;;;;;;6.20;3.90;;;20.30;79.10;;;;;;5099146;28;20456;-76
2023/06/19 04:14:59;;;;;;;8.27;4.03;;;20.30;79.00;;;;;;5082835;28;20126;-77
2023/06/19 04:17:25;;;;;;;6.18;4.60;;;20.30;79.30;;;;;;5099850;28;20035;-77
2023/06/19 04:19:50;;;;;;;6.95;4.30;;;20.30;78.60;;;;;;5116326;28;20062;-78
2023/06/19 04:22:16;;;;;;;8.18;3.83;;;20.40;78.20;;;;;;5082239;28;20032;-77
2023/06/19 04:24:42;;;;;;;4.18;3.78;;;20.40;77.90;;;;;;5082061;28;20055;-79
2023/06/19 04:27:08;;;;;;;6.95;3.70;;;20.40;77.60;;;;;;5099068;28;20043;-76
2023/06/19 04:29:35;;;;;;;4.55;3.78;;;20.40;78.10;;;;;;5115698;28;20044;-78
2023/06/19 04:32:03;;;;;;;6.57;3.28;;;20.40;78.20;;;;;;5115920;28;20039;-77
2023/06/19 04:34:29;;;;;;;5.10;4.20;;;20.40;77.70;;;;;;5099786;28;20495;-77
2023/06/19 04:36:58;;;;;;;5.03;3.60;;;20.40;78.50;;;;;;5098911;28;20081;-77
2023/06/19 04:39:24;;;;;;;7.30;3.78;;;20.50;77.90;;;;;;5099430;28;20384;-77
2023/06/19 04:41:50;;;;;;;4.22;3.80;;;20.50;78.80;;;;;;5116249;28;20039;-78
2023/06/19 04:44:16;;;;;;;4.85;3.90;;;20.40;78.50;;;;;;5115562;28;20046;-78
2023/06/19 04:46:43;;;;;;;8.60;4.20;;;20.50;79.00;;;;;;5098899;28;20035;-77
2023/06/19 04:49:09;;;;;;;4.22;3.80;;;20.50;78.80;;;;;;5115698;28;20454;-77
2023/06/19 04:51:35;;;;;;;6.38;3.63;;;20.50;79.00;;;;;;5116049;28;20071;-77
2023/06/19 04:54:01;;;;;;;6.38;4.47;;;20.60;79.10;;;;;;5115678;28;20078;-77
2023/06/19 04:56:28;;;;;;;4.35;3.72;;;20.60;79.20;;;;;;5115991;28;20518;-78
2023/06/19 04:58:59;;;;;;;5.05;4.55;;;20.60;79.20;;;;;;5115727;28;20035;-77
2023/06/19 05:01:27;;;;;;;8.30;4.95;;;20.70;79.70;;;;;;5116143;28;20065;-78
2023/06/19 05:03:54;;;;;;;5.55;4.47;;;20.70;79.20;;;;;;5083069;28;20075;-78
2023/06/19 05:06:21;;;;;;;6.47;5.20;;;20.70;80.00;;;;;;5098352;28;20038;-78
2023/06/19 05:08:47;;;;;;;7.30;4.68;;;20.70;79.40;;;;;;5114905;28;20043;-78
2023/06/19 05:11:13;;;;;;;8.13;5.60;;;20.60;80.10;;;;;;5114193;28;20532;-78
2023/06/19 05:13:38;;;;;;;6.07;5.47;;;20.70;79.30;;;;;;5098367;28;20095;-78
2023/06/19 05:16:04;;;;;;;9.95;7.38;;;20.70;80.50;;;;;;5115217;28;20139;-77
2023/06/19 05:18:30;;;;;;;10.55;7.75;;;20.70;80.00;;;;;;5081571;28;20047;-79
2023/06/19 05:20:55;;;;;;;10.48;9.45;;;20.70;80.70;;;;;;5098707;28;20038;-76
2023/06/19 05:23:21;;;;;;;11.60;10.45;;;20.60;81.20;;;;;;5081039;28;20441;-77
2023/06/19 05:25:47;;;;;;;14.73;11.25;;;20.60;83.10;;;;;;5115254;28;20051;-77
2023/06/19 05:28:13;;;;;;;11.57;10.38;;;20.60;83.60;;;;;;5116143;28;20040;-79
2023/06/19 05:30:38;;;;;;;16.52;14.45;;;20.50;82.90;;;;;;5080342;28;20085;-78
2023/06/19 05:33:04;;;;;;;19.20;17.20;;;20.70;83.00;;;;;;5080608;28;20423;-76
2023/06/19 05:35:30;;;;;;;20.08;17.88;;;20.70;83.90;;;;;;5080320;28;20093;-78
2023/06/19 05:37:56;;;;;;;23.00;19.85;;;20.70;83.30;;;;;;5097864;28;20328;-79
2023/06/19 05:40:21;;;;;;;26.35;22.13;;;20.70;83.80;;;;;;5081681;28;20036;-79
2023/06/19 05:42:47;;;;;;;26.10;22.55;;;20.70;84.40;;;;;;5098172;28;20050;-78
2023/06/19 05:45:13;;;;;;;32.35;28.88;;;20.70;84.80;;;;;;5080223;28;20036;-78
2023/06/19 05:47:38;;;;;;;29.92;26.63;;;20.80;84.80;;;;;;5097344;28;20052;-78
2023/06/19 05:50:04;;;;;;;36.88;32.15;;;20.80;85.00;;;;;;5096906;28;20050;-78
2023/06/19 05:52:30;;;;;;;35.42;31.73;;;20.90;84.30;;;;;;5096496;28;20466;-78
2023/06/19 05:54:57;;;;;;;38.13;33.47;;;20.90;84.80;;;;;;5113688;28;20123;-78
2023/06/19 05:57:23;;;;;;;40.83;34.63;;;20.80;85.80;;;;;;5080118;28;20043;-78
2023/06/19 05:59:50;;;;;;;38.08;34.13;;;20.80;84.90;;;;;;5096869;28;20032;-79
2023/06/19 06:02:17;;;;;;;39.72;35.22;;;20.70;84.50;;;;;;5114029;28;20035;-78
2023/06/19 06:04:43;;;;;;;40.20;35.92;;;20.60;84.40;;;;;;5096881;28;20043;-78
2023/06/19 06:07:08;;;;;;;36.08;32.25;;;20.70;83.80;;;;;;5113516;28;20438;-78
2023/06/19 06:09:34;;;;;;;31.05;27.75;;;20.60;83.90;;;;;;5113489;28;20088;-79
2023/06/19 06:12:00;;;;;;;29.77;26.65;;;20.60;83.20;;;;;;5113718;28;20040;-77
2023/06/19 06:14:26;;;;;;;30.65;26.83;;;20.60;82.40;;;;;;5096340;28;20127;-77
2023/06/19 06:16:52;;;;;;;32.03;27.58;;;20.60;82.20;;;;;;5096681;28;20071;-78
2023/06/19 06:19:22;;;;;;;31.85;26.50;;;20.60;82.30;;;;;;5079647;28;20069;-80
2023/06/19 06:21:48;;;;;;;28.02;23.95;;;20.60;82.40;;;;;;5096489;28;20043;-78
2023/06/19 06:24:14;;;;;;;30.95;25.50;;;20.70;82.40;;;;;;5079794;28;21078;-79
2023/06/19 06:26:39;;;;;;;32.67;29.20;;;20.70;82.20;;;;;;5096632;28;20083;-79
2023/06/19 06:29:05;;;;;;;32.92;29.48;;;20.70;82.20;;;;;;5096459;28;20054;-79
2023/06/19 06:31:31;;;;;;;35.08;31.08;;;20.60;82.50;;;;;;5112838;28;20044;-81
2023/06/19 06:33:56;;;;;;;38.80;31.55;;;20.50;82.70;;;;;;5078730;28;20044;-79
2023/06/19 06:36:22;;;;;;;38.20;29.67;;;20.50;82.50;;;;;;5079178;28;20040;-78
2023/06/19 06:38:48;;;;;;;40.47;32.83;;;20.50;82.90;;;;;;5112844;28;20067;-80
2023/06/19 06:41:13;;;;;;;41.13;32.88;;;20.50;83.00;;;;;;5095593;28;20066;-80
2023/06/19 06:43:42;;;;;;;39.33;32.85;;;20.50;82.80;;;;;;5095436;28;20031;-80
2023/06/19 06:46:10;;;;;;;43.83;33.53;;;20.30;83.70;;;;;;5096227;28;20035;-80
2023/06/19 06:48:39;;;;;;;42.97;34.88;;;20.20;84.00;;;;;;5096245;28;20039;-77
2023/06/19 06:51:05;;;;;;;47.45;34.72;;;20.20;84.40;;;;;;5112848;28;20396;-80
2023/06/19 06:53:34;;;;;;;44.05;29.90;;;20.00;85.40;;;;;;5061902;28;20044;-77
2023/06/19 06:56:00;;;;;;;37.35;27.65;;;20.00;85.20;;;;;;5079409;28;20036;-79
2023/06/19 06:58:26;;;;;;;40.63;27.30;;;19.90;85.50;;;;;;5112311;28;20039;-78
2023/06/19 07:00:53;;;;;;;39.80;29.30;;;19.90;86.20;;;;;;5078619;28;20046;-79
2023/06/19 07:03:18;;;;;;;39.67;28.02;;;19.80;86.40;;;;;;5078979;28;20040;-77
2023/06/19 07:05:44;;;;;;;40.13;28.58;;;19.70;86.50;;;;;;5112710;28;20160;-77
2023/06/19 07:08:10;;;;;;;39.22;27.60;;;19.60;87.10;;;;;;5095636;28;20531;-79
2023/06/19 07:10:36;;;;;;;37.65;25.02;;;19.60;87.00;;;;;;5095804;28;20062;-79
2023/06/19 07:13:02;;;;;;;35.85;26.58;;;19.60;87.00;;;;;;5095559;28;20483;-79
2023/06/19 07:15:28;;;;;;;35.47;25.83;;;19.60;87.30;;;;;;5112636;28;20071;-79
2023/06/19 07:17:53;;;;;;;36.15;26.58;;;19.50;87.30;;;;;;5095274;28;20031;-78
2023/06/19 07:20:19;;;;;;;35.92;24.35;;;19.50;88.00;;;;;;5095491;28;20036;-79
2023/06/19 07:22:45;;;;;;;40.95;27.83;;;19.60;87.50;;;;;;5112341;28;20430;-79
2023/06/19 07:25:11;;;;;;;33.92;26.40;;;19.50;87.50;;;;;;5112128;28;20080;-78
2023/06/19 07:27:37;;;;;;;34.30;22.73;;;19.50;87.30;;;;;;5078605;28;20130;-80
2023/06/19 07:30:04;;;;;;;36.72;25.83;;;19.50;87.50;;;;;;5095408;28;20126;-78
2023/06/19 07:32:29;;;;;;;36.80;26.38;;;19.60;87.50;;;;;;5078472;28;20131;-78
2023/06/19 07:34:55;;;;;;;33.17;22.77;;;19.50;87.40;;;;;;5095479;28;20474;-77
2023/06/19 07:37:21;;;;;;;33.83;24.17;;;19.60;87.60;;;;;;5078703;28;20035;-79
2023/06/19 07:39:49;;;;;;;32.50;22.83;;;19.60;87.60;;;;;;5095262;28;20429;-78
2023/06/19 07:42:16;;;;;;;29.55;21.42;;;19.60;87.70;;;;;;5078400;28;20039;-78
2023/06/19 07:44:42;;;;;;;25.83;19.23;;;19.60;87.20;;;;;;5078708;28;20510;-79
2023/06/19 07:47:08;;;;;;;24.42;17.77;;;19.70;86.60;;;;;;5112449;28;20437;-77
2023/06/19 07:49:35;;;;;;;23.48;18.27;;;19.60;86.70;;;;;;5112284;28;20065;-77
2023/06/19 07:52:01;;;;;;;20.50;16.65;;;19.70;86.80;;;;;;5095282;28;20116;-77
2023/06/19 07:54:27;;;;;;;22.50;16.40;;;19.50;87.50;;;;;;5112871;28;20504;-78
2023/06/19 07:56:53;;;;;;;19.08;16.30;;;19.60;87.50;;;;;;5082050;28;20070;-77
2023/06/19 07:59:19;;;;;;;20.77;17.75;;;19.50;88.60;;;;;;5099090;28;20055;-78
2023/06/19 08:01:44;;;;;;;21.35;16.05;;;19.40;88.50;;;;;;5098484;28;20031;-78
2023/06/19 08:04:10;;;;;;;17.77;15.30;;;19.40;88.40;;;;;;5081402;28;20035;-77
2023/06/19 08:06:36;;;;;;;20.25;16.55;;;19.40;89.20;;;;;;5115724;28;20035;-78
2023/06/19 08:09:02;;;;;;;20.70;15.05;;;19.20;89.40;;;;;;5098787;28;20067;-77
2023/06/19 08:11:28;;;;;;;20.65;14.88;;;19.30;89.30;;;;;;5115304;28;20032;-80
2023/06/19 08:13:54;;;;;;;17.73;14.82;;;19.30;89.70;;;;;;5115427;28;20039;-79
2023/06/19 08:16:20;;;;;;;20.05;15.52;;;19.20;89.60;;;;;;5098453;28;20144;-78
2023/06/19 08:18:46;;;;;;;19.55;14.68;;;19.10;89.90;;;;;;5115570;28;20512;-79
2023/06/19 08:21:12;;;;;;;18.67;15.45;;;19.10;89.60;;;;;;5064615;28;20467;-78
2023/06/19 08:23:39;;;;;;;19.15;16.35;;;19.00;89.40;;;;;;5098232;28;20479;-78
2023/06/19 08:26:05;;;;;;;20.52;14.70;;;19.00;89.50;;;;;;5081248;28;20052;-78
2023/06/19 08:28:32;;;;;;;22.02;16.15;;;19.10;89.60;;;;;;5098684;28;20105;-80
2023/06/19 08:30:58;;;;;;;20.15;16.25;;;19.10;89.30;;;;;;5115615;28;20039;-80
2023/06/19 08:33:24;;;;;;;20.25;14.82;;;19.10;89.20;;;;;;5081283;28;20552;-79
2023/06/19 08:35:50;;;;;;;19.42;16.33;;;19.20;88.90;;;;;;5081448;28;20402;-77
2023/06/19 08:38:15;;;;;;;19.30;16.63;;;19.20;87.80;;;;;;5116006;28;20039;-78
2023/06/19 08:40:45;;;;;;;18.52;16.20;;;19.30;87.20;;;;;;5098386;28;20031;-79
2023/06/19 08:43:11;;;;;;;17.95;16.05;;;19.30;86.80;;;;;;5098382;28;20039;-79
2023/06/19 08:45:37;;;;;;;21.20;17.58;;;19.30;86.70;;;;;;5115099;28;20040;-80
2023/06/19 08:48:04;;;;;;;21.92;16.65;;;19.40;86.20;;;;;;5098464;28;20499;-79
2023/06/19 08:50:33;;;;;;;22.38;17.52;;;19.30;86.00;;;;;;5115134;28;20092;-78
2023/06/19 08:52:59;;;;;;;22.65;18.70;;;19.40;85.80;;;;;;5098119;28;20040;-79
2023/06/19 08:55:25;;;;;;;21.15;16.85;;;19.30;85.70;;;;;;5081081;28;20051;-79
2023/06/19 08:57:52;;;;;;;20.75;16.92;;;19.30;85.70;;;;;;5097813;28;20058;-78
2023/06/19 09:00:29;;;;;;;22.45;17.15;;;19.30;85.30;;;;;;5097311;28;20039;-79
2023/06/19 09:03:01;;;;;;;24.27;17.38;;;19.40;85.10;;;;;;5114529;28;20084;-78
2023/06/19 09:05:27;;;;;;;21.92;16.52;;;19.40;85.10;;;;;;5097416;28;20135;-77
2023/06/19 09:08:00;;;;;;;20.70;17.55;;;19.50;84.80;;;;;;5114928;28;20130;-77
2023/06/19 09:10:26;;;;;;;20.70;16.53;;;19.60;84.30;;;;;;5114632;28;20067;-77
2023/06/19 09:13:02;;;;;;;21.58;15.55;;;19.60;84.20;;;;;;5097722;28;20279;-78
2023/06/19 09:15:36;;;;;;;23.13;15.35;;;19.70;83.70;;;;;;5114208;28;20039;-79
2023/06/19 09:18:06;;;;;;;21.65;15.02;;;19.70;83.70;;;;;;5114153;28;20122;-79
2023/06/19 09:20:36;;;;;;;20.08;14.45;;;19.70;83.10;;;;;;5081202;28;20032;-79
2023/06/19 09:23:02;;;;;;;17.17;14.70;;;19.70;83.20;;;;;;5097690;28;20035;-79
2023/06/19 09:25:27;;;;;;;22.10;17.08;;;19.70;83.50;;;;;;5097142;28;20101;-78
2023/06/19 09:27:54;;;;;;;20.42;17.65;;;19.50;83.10;;;;;;5114591;28;20055;-79
2023/06/19 09:30:20;;;;;;;19.80;16.90;;;19.50;83.20;;;;;;5114675;28;20086;-79
2023/06/19 09:32:46;;;;;;;22.10;16.95;;;19.50;83.40;;;;;;5080467;28;20039;-77
2023/06/19 09:35:11;;;;;;;17.83;15.68;;;19.50;83.60;;;;;;5114244;28;20040;-77
2023/06/19 09:37:39;;;;;;;19.60;15.70;;;19.60;83.10;;;;;;5097488;28;20127;-78
2023/06/19 09:40:15;;;;;;;22.00;17.45;;;19.50;83.30;;;;;;5114388;28;20039;-79
2023/06/19 09:42:45;;;;;;;23.88;15.75;;;19.50;83.40;;;;;;5097269;28;20036;-78
2023/06/19 09:45:14;;;;;;;19.67;16.38;;;19.70;82.80;;;;;;5097400;28;20047;-78
2023/06/19 09:47:45;;;;;;;23.10;15.27;;;19.60;82.50;;;;;;5097132;28;20047;-77
2023/06/19 09:50:13;;;;;;;24.60;17.27;;;19.70;82.40;;;;;;5114245;28;20388;-78
2023/06/19 09:52:41;;;;;;;18.88;16.83;;;19.70;82.40;;;;;;5097001;28;20055;-78
2023/06/19 09:55:09;;;;;;;19.75;17.65;;;19.70;82.20;;;;;;5113543;28;20050;-78
2023/06/19 09:57:37;;;;;;;23.73;18.48;;;19.70;82.00;;;;;;5097133;28;20032;-79
2023/06/19 10:00:12;;;;;;;20.25;16.88;;;19.90;82.00;;;;;;5113611;28;20031;-79
2023/06/19 10:02:42;;;;;;;22.48;17.05;;;19.90;81.70;;;;;;5113483;28;20114;-79
2023/06/19 10:05:11;;;;;;;21.80;16.73;;;20.00;81.20;;;;;;5111976;27;20504;-79
2023/06/19 10:07:37;;;;;;;21.48;17.40;;;20.20;80.80;;;;;;5117548;27;20089;-78
2023/06/19 10:10:09;;;;;;;20.83;17.55;;;20.30;80.70;;;;;;5129467;27;20042;-77
2023/06/19 10:12:35;;;;;;;21.20;17.95;;;20.70;79.60;;;;;;5108287;27;20046;-79
2023/06/19 10:15:21;;;;;;;25.35;17.70;;;20.90;78.40;;;;;;5116026;27;20035;-78
2023/06/19 10:17:52;;;;;;;23.83;16.27;;;21.20;77.90;;;;;;5115610;27;20629;-77
2023/06/19 10:20:31;;;;;;;24.35;17.90;;;21.50;77.80;;;;;;5132791;27;20039;-78
2023/06/19 10:22:58;;;;;;;17.45;15.25;;;21.70;76.30;;;;;;5133068;27;20082;-77
2023/06/19 10:25:28;;;;;;;20.05;16.88;;;21.90;74.30;;;;;;5115769;27;20519;-78
2023/06/19 10:27:54;;;;;;;20.67;17.65;;;21.80;73.60;;;;;;5116572;27;20061;-78
2023/06/19 10:30:20;;;;;;;17.67;15.88;;;21.90;74.20;;;;;;5132361;27;20050;-79
2023/06/19 10:32:47;;;;;;;18.92;15.82;;;21.80;72.70;;;;;;5097954;27;20039;-77
2023/06/19 10:35:17;;;;;;;18.40;15.23;;;21.60;72.80;;;;;;5080972;27;20031;-78
2023/06/19 10:37:46;;;;;;;18.52;14.23;;;21.70;73.10;;;;;;5132056;27;20041;-78
2023/06/19 10:40:12;;;;;;;23.83;17.20;;;21.80;72.30;;;;;;5131857;27;20109;-79
2023/06/19 10:42:41;;;;;;;24.02;17.17;;;21.70;71.30;;;;;;5131132;27;20064;-78
2023/06/19 10:45:11;;;;;;;21.35;18.40;;;21.70;72.30;;;;;;5115544;27;20054;-78
2023/06/19 10:47:39;;;;;;;23.60;19.08;;;21.60;72.70;;;;;;5133837;27;20142;-79
2023/06/19 10:50:12;;;;;;;22.52;19.05;;;21.40;73.40;;;;;;5116456;27;20039;-77
2023/06/19 10:52:45;;;;;;;22.15;19.70;;;21.50;73.70;;;;;;5116757;27;20035;-80
2023/06/19 10:55:12;;;;;;;25.10;19.90;;;21.50;73.90;;;;;;5115888;27;20035;-77
2023/06/19 10:57:45;;;;;;;23.50;18.02;;;21.60;73.40;;;;;;5116247;27;20118;-78
2023/06/19 11:00:12;;;;;;;26.33;20.85;;;21.50;73.30;;;;;;5133521;27;20118;-77
2023/06/19 11:02:40;;;;;;;21.85;19.00;;;21.50;73.80;;;;;;5116345;28;20050;-77
2023/06/19 11:05:06;;;;;;;24.73;20.38;;;21.50;74.60;;;;;;5116090;28;20043;-78
2023/06/19 11:07:32;;;;;;;24.15;20.35;;;21.40;74.90;;;;;;5133293;28;20046;-78
2023/06/19 11:09:58;;;;;;;21.30;17.70;;;21.60;74.70;;;;;;5116141;28;20035;-79
2023/06/19 11:12:24;;;;;;;21.10;16.95;;;21.80;73.70;;;;;;5116320;28;20045;-79
2023/06/19 11:14:50;;;;;;;20.65;17.90;;;21.80;73.10;;;;;;5116088;28;20042;-79
2023/06/19 11:17:21;;;;;;;20.75;16.35;;;21.80;72.70;;;;;;5133598;28;20437;-78
2023/06/19 11:19:47;;;;;;;19.02;16.45;;;21.90;72.30;;;;;;5133230;28;20105;-80
2023/06/19 11:22:13;;;;;;;24.85;19.83;;;21.80;71.60;;;;;;5132794;28;20035;-79
2023/06/19 11:24:48;;;;;;;21.40;17.95;;;21.70;72.30;;;;;;5115945;27;20055;-79
2023/06/19 11:27:27;;;;;;;18.33;15.73;;;21.50;72.90;;;;;;5116338;28;20118;-80
2023/06/19 11:29:58;;;;;;;20.13;16.67;;;21.30;73.20;;;;;;5117379;27;20043;-80
2023/06/19 11:32:30;;;;;;;19.13;15.90;;;21.50;72.30;;;;;;5136758;27;20498;-80
2023/06/19 11:34:57;;;;;;;18.88;16.05;;;21.70;72.50;;;;;;5121053;27;20050;-79
2023/06/19 11:37:23;;;;;;;18.25;16.30;;;21.90;72.20;;;;;;5137407;27;20035;-78
2023/06/19 11:39:52;;;;;;;18.13;16.23;;;22.10;71.30;;;;;;5120126;27;20088;-78
2023/06/19 11:42:18;;;;;;;18.02;16.13;;;22.00;70.70;;;;;;5120208;27;20043;-79
2023/06/19 11:44:57;;;;;;;14.95;13.02;;;22.00;71.10;;;;;;5137053;27;20565;-79
2023/06/19 11:47:23;;;;;;;15.10;13.65;;;22.10;70.80;;;;;;5120294;27;20047;-78
2023/06/19 11:49:50;;;;;;;16.33;14.52;;;22.40;71.10;;;;;;5119930;27;20120;-79
2023/06/19 11:52:15;;;;;;;17.17;14.02;;;22.50;69.40;;;;;;5119708;27;20107;-78
2023/06/19 11:54:41;;;;;;;16.05;14.20;;;22.60;69.50;;;;;;5120139;27;20039;-78
2023/06/19 11:57:11;;;;;;;18.42;13.45;;;22.70;68.50;;;;;;5119708;27;20414;-80
2023/06/19 11:59:41;;;;;;;17.00;13.57;;;22.60;69.10;;;;;;5136565;27;20081;-78
2023/06/19 12:02:07;;;;;;;16.48;14.75;;;22.70;69.30;;;;;;5119638;27;20497;-78
2023/06/19 12:04:33;;;;;;;12.82;11.52;;;22.60;68.90;;;;;;5119600;27;20087;-78
2023/06/19 12:06:59;;;;;;;17.35;12.73;;;22.80;68.10;;;;;;5136696;27;20051;-78
2023/06/19 12:09:25;;;;;;;18.65;13.07;;;22.90;68.10;;;;;;5119535;27;20043;-78
2023/06/19 12:11:51;;;;;;;15.30;13.18;;;22.90;68.50;;;;;;5136677;27;20420;-78
2023/06/19 12:14:18;;;;;;;14.63;13.02;;;23.20;68.00;;;;;;5102324;27;20444;-77
2023/06/19 12:16:45;;;;;;;14.40;12.93;;;23.30;66.80;;;;;;5102779;27;20038;-79
2023/06/19 12:19:11;;;;;;;15.05;13.45;;;23.40;66.60;;;;;;5137047;27;20031;-77
2023/06/19 12:21:36;;;;;;;11.75;10.60;;;23.40;66.20;;;;;;5136438;27;20494;-79
2023/06/19 12:24:02;;;;;;;14.73;11.77;;;23.60;65.80;;;;;;5119167;27;20035;-78
2023/06/19 12:26:28;;;;;;;12.02;10.27;;;23.80;64.60;;;;;;5135862;27;20051;-79
2023/06/19 12:28:54;;;;;;;12.85;10.48;;;23.90;64.10;;;;;;5101940;27;20054;-79
2023/06/19 12:31:19;;;;;;;12.50;10.63;;;24.20;63.40;;;;;;5119056;27;20042;-80
2023/06/19 12:33:47;;;;;;;14.10;10.57;;;24.30;63.00;;;;;;5102195;27;20179;-77